AirNav   Air Wisconsin pilot careers
 
 892 users online  

0A8 Bibb County Airport
Centreville, Alabama, USA

GOING TO CENTREVILLE?


FAA INFORMATION EFFECTIVE 28 MARCH 2019

Location

FAA Identifier: 0A8
Lat/Long: 32-56-12.9800N / 087-05-25.9700W
32-56.216333N / 087-05.432833W
32.9369389 / -87.0905472
(estimated)
Elevation: 250.9 ft. / 76.5 m (surveyed)
Variation: 02W (2010)
From city: 3 miles E of CENTREVILLE, AL
Time zone: UTC -5 (UTC -6 during Standard Time)
Zip code: 35042

Airport Operations

Airport use: Open to the public
Activation date: 07/1962
Control tower: no
ARTCC: ATLANTA CENTER
FSS: ANNISTON FLIGHT SERVICE STATION
NOTAMs facility: ANB (NOTAM-D service available)
Attendance: UNATNDD
AIRPORT UNATNDD.
Wind indicator: lighted
Segmented circle: no
Lights: ACTVT REIL RWY 10/28; PAPI RWY 10/28; MIRL RWY 10/28 - CTAF.
Beacon: white-green (lighted land airport)
Operates sunset to sunrise.

Airport Communications

CTAF/UNICOM: 122.975
  • APCH/DEP SVC PRVDD BY ATLANTA ARTCC ON FREQS 132.25/263.025 (UNIONTOWN RCAG).

Nearby radio navigation aids

VOR radial/distance  VOR name  Freq  Var
OKWr156/19.8BROOKWOOD VORTAC111.0000E
LDKr128/29.6CRIMSON VORTAC117.8003E

Airport Services

Airframe service: NONE
Powerplant service: MINOR
Bottled oxygen: NONE
Bulk oxygen: NONE

Runway Information

Runway 10/28

Dimensions: 4206 x 80 ft. / 1282 x 24 m
Surface: asphalt, in fair condition
Weight bearing capacity: 
Single wheel: 18.0
Runway edge lights: medium intensity
Runway edge markings: RWY MARKINGS FADED.
RUNWAY 10  RUNWAY 28
Latitude: 32-56.246500N32-56.186167N
Longitude: 087-05.842500W087-05.023167W
Elevation: 238.5 ft.250.9 ft.
Gradient: 0.3%0.3%
Traffic pattern: leftleft
Runway heading: 097 magnetic, 095 true277 magnetic, 275 true
Markings: nonprecision, in poor conditionnonprecision, in poor condition
Visual slope indicator: 2-light PAPI on left (4.00 degrees glide path)2-light PAPI on left (4.00 degrees glide path)
Runway end identifier lights: yesyes
Touchdown point: yes, no lightsyes, no lights
Obstructions: 78 ft. tree, 2733 ft. from runway, 51 ft. right of centerline, 32:1 slope to clear15 ft. trees, 413 ft. from runway, 25 ft. left of centerline, 14:1 slope to clear

Airport Ownership and Management from official FAA records

Ownership: Publicly-owned
Owner: BIBB COUNTY COMMISSION
157 SW DAVIDSON DRIVE
CENTREVILLE, AL 35042
Phone (205) 926-3114
Manager: BRYAN MILLER
P.O BOX 308
CENTREVILLE, AL 35042
Phone (205) 225-4763
FOR AIRPORT ACCESS CONTACT 205-225-4763 OR 205-316-8574

Airport Operational Statistics

Aircraft based on the field: 10
Single engine airplanes: 7
Multi engine airplanes: 1
Jet airplanes: 2
    
Aircraft operations: avg 68/week *
78% transient general aviation
22% local general aviation
* for 12-month period ending 15 November 2017

Additional Remarks

PILOT ACCESS VIA WALK THROUGH GATE ON NORTH SIDE OF AIRPORT

Instrument Procedures

NOTE: All procedures below are presented as PDF files. If you need a reader for these files, you should download the free Adobe Reader.

NOT FOR NAVIGATION. Please procure official charts for flight.
FAA instrument procedures published for use from 28 March 2019 at 0901Z to 25 April 2019 at 0900Z.

 
IAPs - Instrument Approach Procedures
RNAV (GPS) RWY 10 **CHANGED**   download (191KB)
RNAV (GPS) RWY 28 **CHANGED**   download (184KB)
NOTE: Special Take-Off Minimums/Departure Procedures apply   download (189KB)

Other nearby airports with instrument procedures:

KEET - Shelby County Airport (21 nm NE)
KEKY - Bessemer Airport (24 nm N)
02A - Chilton County Airport (25 nm E)
A08 - Vaiden Field Airport (30 nm SW)
KTCL - Tuscaloosa Regional Airport (31 nm NW)
 
Loc | Ops | Rwys | IFR | FBO | Links
Com | Nav | Svcs | Stats | Notes
Area around 0A8 (Bibb County Airport)
 
Road maps at: MapQuest Bing Google
 
Aerial photo
WARNING: Photo may not be current or correct
Aerial photo of 0A8 (Bibb County Airport)
Do you have a better or more recent aerial photo of Bibb County Airport that you would like to share? If so, please send us your photo.

 
Sectional chart

 
Airport distance calculator
Flying to Bibb County Airport? Find the distance to fly.

From to 0A8

Sunrise and sunset
Times for 22-Apr-2019
 Local
(UTC-5)
 Zulu
(UTC)
Morning civil twilight05:4610:46
Sunrise06:1111:11
Sunset19:2200:22
Evening civil twilight19:4800:48

Current date and time
Zulu (UTC)  23-Apr-2019 02:54:12
Local (UTC-5)  22-Apr-2019 21:54:12
 
METAR
KEET 
21nm NE 
230153Z AUTO 00000KT 10SM CLR 18/14 A3014 RMK AO2 SLP204 T01780139
KEKY 
24nm N 
230156Z AUTO 22003KT 10SM CLR 17/10 A3015 RMK AO2 SLP226 T01720100
KA08 
30nm SW 
230235Z AUTO 29007KT 10SM CLR 16/13 A3013 RMK AO2 T01580125
KTCL 
31nm NW 
230153Z 00000KT 10SM CLR 18/13 A3013 RMK AO2 SLP201 T01830133
KSEM 
36nm S 
230235Z AUTO 00000KT 10SM 15/14 A3014 RMK AO2
KBHM 
41nm NE 
230153Z 00000KT 10SM FEW250 19/12 A3016 RMK AO2 SLP207 T01940117
K1A9 
42nm SE 
230235Z AUTO 00000KT 10SM CLR 15/13 A3014 RMK AO2 T01450125
KSCD 
42nm E 
230235Z AUTO 00000KT 10SM SCT120 15/14 A3015 RMK AO2 T01470137
TAF
KEET 
21nm NE 
221738Z 2218/2318 VRB03KT P6SM SKC FM231500 25005KT P6SM SKC
NOTAMs
Click for the latest NOTAMs
NOTAMs are issued by the DoD/FAA and will open in a separate window not controlled by AirNav.

 

 
 

Would you like to see your business listed on this page?

 If your business provides an interesting product or service to pilots, flight crews, aircraft, or users of the Bibb County Airport, you should consider listing it here.  To start the listing process, click on the button below
 
Add a business
 

Other Pages about Bibb County Airport

Update a link
 
Copyright © AirNav, LLC. All rights reserved. Privacy Policy  Contact